»·PEaware :: WAT175 KABQ-KPHX

WAT175 :: KABQ-KPHX

FLIGHT INFORMATION

Flight Status: Arrived
Operator: Unknown
More flights by this operator :: More flights under this callsign
Pilot: Michael C. (27126)
Aircraft: BOEING 737-800
(B738)
More flights by this aircraft type
Origin: KABQ Albuquerque Intl Sunport
United States
Destination: KPHX Phoenix Sky Harbor Intl
United States
More flights between these airports :: More routes between these airports
Route: LARGO3 ZUN EAGUL6
File this flight plan on PilotEdge
Remarks: RMK / SIMBRIEF
Altitude:
(Current/Filed)
36,000ft
Speed:
(Current/Filed)
460kts
Departed: 25-Mar-20 08:29 PM
Arrived: 25-Mar-20 09:31 PM
Distance/Time
Traveled:
284nm/1:02
Distance/Time
To Go:
Arrived

Flight Plot

Page will automatically refresh every two minutes.

Flight plan parsing failed; only flown route is shown


Map Options




Map Legend


Flown Route
Filed Route
Departure Airport
Arrival Airport
Navaid (VOR, NDB)
Fix

Horizontal Profiles

Position Reports

Time Latitude Longitude Heading Altitude Ground
Speed
25-Mar-20 20:04 35.046903 -106.616388 11 5316ft 0kts
25-Mar-20 20:04 35.046903 -106.616388 11 5316ft 0kts
25-Mar-20 20:06 35.046903 -106.616388 11 5316ft 0kts
25-Mar-20 20:07 35.046903 -106.616388 11 5316ft 0kts
25-Mar-20 20:07 35.046903 -106.616388 11 5316ft 0kts
25-Mar-20 20:08 35.046903 -106.616388 11 5316ft 0kts
25-Mar-20 20:10 35.046903 -106.616388 11 5316ft 0kts
25-Mar-20 20:10 35.046903 -106.616388 11 5316ft 0kts
25-Mar-20 20:11 35.046903 -106.616388 11 5316ft 0kts
25-Mar-20 20:13 35.046903 -106.616388 11 5316ft 0kts
25-Mar-20 20:13 35.046662 -106.616466 32 5316ft 2kts
25-Mar-20 20:14 35.046463 -106.616961 91 5316ft 0kts
25-Mar-20 20:15 35.046464 -106.616963 91 5316ft 0kts
25-Mar-20 20:16 35.046464 -106.616963 91 5316ft 0kts
25-Mar-20 20:17 35.045893 -106.616244 133 5317ft 8kts
25-Mar-20 20:18 35.045846 -106.612216 90 5322ft 13kts
25-Mar-20 20:19 35.045783 -106.606517 89 5324ft 18kts
25-Mar-20 20:20 35.045737 -106.600187 88 5325ft 17kts
25-Mar-20 20:21 35.045848 -106.595480 90 5329ft 11kts
25-Mar-20 20:22 35.045817 -106.589799 90 5334ft 20kts
25-Mar-20 20:23 35.045781 -106.583613 90 5343ft 13kts
25-Mar-20 20:24 35.045746 -106.579041 90 5350ft 14kts
25-Mar-20 20:25 35.045622 -106.576053 116 5355ft 5kts
25-Mar-20 20:26 35.045380 -106.575811 154 5355ft 0kts
25-Mar-20 20:27 35.045185 -106.575735 169 5355ft 0kts
25-Mar-20 20:28 35.044096 -106.584227 269 5338ft 113kts
25-Mar-20 20:29 35.043365 -106.643384 267 6894ft 199kts
25-Mar-20 20:30 35.041683 -106.722603 267 8696ft 263kts
25-Mar-20 20:31 35.040405 -106.814289 267 9018ft 269kts
25-Mar-20 20:32 35.038726 -106.905451 267 9017ft 267kts
25-Mar-20 20:33 35.037467 -106.995819 267 9017ft 265kts
25-Mar-20 20:34 35.036628 -107.085792 267 9016ft 264kts
25-Mar-20 20:35 35.035929 -107.175588 267 9016ft 264kts
25-Mar-20 20:36 35.035284 -107.265282 267 9015ft 264kts
25-Mar-20 20:37 35.034744 -107.355762 265 10514ft 273kts
25-Mar-20 20:38 35.030025 -107.457416 263 12886ft 311kts
25-Mar-20 20:39 35.025983 -107.564028 263 15878ft 317kts
25-Mar-20 20:40 35.021875 -107.672604 262 18551ft 323kts
25-Mar-20 20:41 35.017622 -107.783325 262 21012ft 330kts
25-Mar-20 20:42 35.013357 -107.895928 262 23188ft 336kts
25-Mar-20 20:43 35.009122 -108.008061 262 25079ft 342kts
25-Mar-20 20:44 35.004783 -108.123053 262 26787ft 348kts
25-Mar-20 20:45 35.000225 -108.244001 262 28365ft 353kts
25-Mar-20 20:46 34.995656 -108.365256 262 29755ft 358kts
25-Mar-20 20:47 34.991087 -108.487026 262 31165ft 358kts
25-Mar-20 20:48 34.986576 -108.607630 261 32734ft 351kts
25-Mar-20 20:49 34.982075 -108.724545 261 34276ft 343kts
25-Mar-20 20:50 34.977607 -108.840543 261 35543ft 341kts
25-Mar-20 20:51 34.973209 -108.956480 261 36018ft 342kts
25-Mar-20 20:52 34.969334 -109.071885 264 36009ft 338kts
25-Mar-20 20:53 34.954460 -109.181617 246 36000ft 326kts
25-Mar-20 20:54 34.918843 -109.283715 243 35993ft 328kts
25-Mar-20 20:55 34.881547 -109.386100 243 36008ft 333kts
25-Mar-20 20:56 34.843729 -109.489505 243 36003ft 333kts
25-Mar-20 20:57 34.806157 -109.592024 243 36004ft 332kts
25-Mar-20 20:58 34.768355 -109.694081 242 36017ft 333kts
25-Mar-20 20:59 34.730121 -109.796807 243 36024ft 332kts
25-Mar-20 21:00 34.692196 -109.898937 243 36031ft 333kts
25-Mar-20 21:01 34.654024 -110.001525 243 36032ft 332kts
25-Mar-20 21:02 34.615907 -110.103834 243 36026ft 332kts
25-Mar-20 21:03 34.577678 -110.206154 243 36023ft 332kts
25-Mar-20 21:04 34.539523 -110.307962 243 35175ft 327kts
25-Mar-20 21:05 34.501747 -110.408449 243 34152ft 330kts
25-Mar-20 21:06 34.463069 -110.510209 243 33099ft 335kts
25-Mar-20 21:07 34.424011 -110.613047 243 33006ft 337kts
25-Mar-20 21:08 34.384105 -110.717806 242 31854ft 346kts
25-Mar-20 21:09 34.337119 -110.813537 232 29143ft 331kts
25-Mar-20 21:10 34.275057 -110.898076 227 24708ft 336kts
25-Mar-20 21:11 34.213595 -110.977377 227 21486ft 313kts
25-Mar-20 21:12 34.156166 -111.051454 227 18649ft 293kts
25-Mar-20 21:13 34.101894 -111.121132 226 18050ft 285kts
25-Mar-20 21:14 34.047552 -111.190898 226 16774ft 283kts
25-Mar-20 21:15 33.995214 -111.257994 226 15022ft 268kts
25-Mar-20 21:16 33.943902 -111.323645 226 13386ft 274kts
25-Mar-20 21:17 33.890720 -111.391571 226 12346ft 274kts
25-Mar-20 21:18 33.832153 -111.446236 217 11340ft 267kts
25-Mar-20 21:19 33.771723 -111.498001 218 10214ft 263kts
25-Mar-20 21:20 33.714666 -111.546996 218 9340ft 236kts
25-Mar-20 21:21 33.664461 -111.590069 219 8762ft 209kts
25-Mar-20 21:22 33.615315 -111.631701 218 7918ft 225kts
25-Mar-20 21:23 33.563220 -111.675209 218 6618ft 235kts
25-Mar-20 21:24 33.508744 -111.720714 215 5385ft 239kts
25-Mar-20 21:25 33.459063 -111.768594 234 4210ft 220kts
25-Mar-20 21:26 33.440027 -111.832450 264 3260ft 193kts
25-Mar-20 21:27 33.440515 -111.888411 272 2657ft 142kts
25-Mar-20 21:28 33.440249 -111.937567 272 2384ft 154kts
25-Mar-20 21:29 33.440724 -111.987341 271 1273ft 145kts
25-Mar-20 21:30 33.440752 -112.012925 249 1129ft 16kts
25-Mar-20 21:31 33.439330 -112.014230 161 1128ft 7kts
25-Mar-20 21:32 33.439010 -112.010197 91 1129ft 13kts
25-Mar-20 21:33 33.438105 -112.007421 182 1131ft 7kts
25-Mar-20 21:34 33.437401 -112.008183 268 1129ft 0kts
25-Mar-20 21:35 33.437401 -112.008183 268 1129ft 0kts
25-Mar-20 21:36 33.437401 -112.008183 268 1129ft 0kts
25-Mar-20 21:37 33.437401 -112.008183 268 1129ft 0kts
25-Mar-20 21:38 33.437401 -112.008183 268 1129ft 0kts
25-Mar-20 21:39 33.437401 -112.008183 268 1129ft 0kts

Navigation Log

Ident Type
Flight plan parsing failed, navigation log unavailable